sensor_id;sensor_type;location;lat;lon;timestamp;pressure;altitude;pressure_sealevel;temperature;humidity
78198;BME280;67472;51.554;7.812;2023-09-30T00:01:24;101650.66;;;14.55;100.00
78198;BME280;67472;51.554;7.812;2023-09-30T00:04:10;101647.75;;;14.58;100.00
78198;BME280;67472;51.554;7.812;2023-09-30T00:06:56;101654.78;;;14.59;100.00
78198;BME280;67472;51.554;7.812;2023-09-30T00:09:42;101657.53;;;14.57;100.00
78198;BME280;67472;51.554;7.812;2023-09-30T00:12:28;101668.13;;;14.48;100.00
78198;BME280;67472;51.554;7.812;2023-09-30T00:15:16;101672.78;;;14.55;100.00
78198;BME280;67472;51.554;7.812;2023-09-30T00:18:03;101679.22;;;14.53;100.00
78198;BME280;67472;51.554;7.812;2023-09-30T00:20:49;101676.56;;;14.53;100.00
78198;BME280;67472;51.554;7.812;2023-09-30T00:23:35;101685.13;;;14.56;100.00
78198;BME280;67472;51.554;7.812;2023-09-30T00:26:21;101680.00;;;14.64;100.00
78198;BME280;67472;51.554;7.812;2023-09-30T00:29:07;101683.00;;;14.71;100.00
78198;BME280;67472;51.554;7.812;2023-09-30T00:31:56;101679.09;;;14.75;100.00
78198;BME280;67472;51.554;7.812;2023-09-30T00:34:42;101677.28;;;14.76;100.00
78198;BME280;67472;51.554;7.812;2023-09-30T00:37:29;101687.31;;;14.72;100.00
78198;BME280;67472;51.554;7.812;2023-09-30T00:40:15;101694.78;;;14.78;100.00
78198;BME280;67472;51.554;7.812;2023-09-30T00:43:02;101702.50;;;14.81;100.00
78198;BME280;67472;51.554;7.812;2023-09-30T00:45:48;101696.09;;;14.84;100.00
78198;BME280;67472;51.554;7.812;2023-09-30T00:48:37;101690.69;;;14.95;100.00
78198;BME280;67472;51.554;7.812;2023-09-30T00:51:24;101675.84;;;14.92;100.00
78198;BME280;67472;51.554;7.812;2023-09-30T00:54:11;101679.16;;;14.85;100.00
78198;BME280;67472;51.554;7.812;2023-09-30T00:56:58;101671.19;;;14.85;100.00
78198;BME280;67472;51.554;7.812;2023-09-30T00:59:47;101668.72;;;14.93;100.00
78198;BME280;67472;51.554;7.812;2023-09-30T01:02:35;101663.38;;;14.93;100.00
78198;BME280;67472;51.554;7.812;2023-09-30T01:05:24;101683.19;;;15.00;100.00
78198;BME280;67472;51.554;7.812;2023-09-30T01:08:10;101671.25;;;14.94;100.00
78198;BME280;67472;51.554;7.812;2023-09-30T01:10:57;101669.16;;;14.98;100.00
78198;BME280;67472;51.554;7.812;2023-09-30T01:13:43;101660.91;;;15.01;100.00
78198;BME280;67472;51.554;7.812;2023-09-30T01:16:30;101643.41;;;14.98;100.00
78198;BME280;67472;51.554;7.812;2023-09-30T01:19:16;101654.69;;;15.11;100.00
78198;BME280;67472;51.554;7.812;2023-09-30T01:22:03;101666.94;;;15.23;100.00
78198;BME280;67472;51.554;7.812;2023-09-30T01:24:54;101672.06;;;15.15;100.00
78198;BME280;67472;51.554;7.812;2023-09-30T01:27:40;101680.19;;;15.14;100.00
78198;BME280;67472;51.554;7.812;2023-09-30T01:30:27;101676.81;;;15.12;100.00
78198;BME280;67472;51.554;7.812;2023-09-30T01:33:13;101666.47;;;15.18;100.00
78198;BME280;67472;51.554;7.812;2023-09-30T01:36:01;101663.69;;;15.20;100.00
78198;BME280;67472;51.554;7.812;2023-09-30T01:38:49;101659.41;;;15.28;100.00
78198;BME280;67472;51.554;7.812;2023-09-30T01:41:35;101655.81;;;15.18;100.00
78198;BME280;67472;51.554;7.812;2023-09-30T01:44:21;101661.16;;;15.18;100.00
78198;BME280;67472;51.554;7.812;2023-09-30T01:47:07;101662.53;;;15.13;100.00
78198;BME280;67472;51.554;7.812;2023-09-30T01:49:53;101663.69;;;15.20;100.00
78198;BME280;67472;51.554;7.812;2023-09-30T01:52:40;101663.69;;;15.20;100.00
78198;BME280;67472;51.554;7.812;2023-09-30T01:55:27;101664.88;;;15.37;100.00
78198;BME280;67472;51.554;7.812;2023-09-30T01:58:13;101657.88;;;15.36;100.00
78198;BME280;67472;51.554;7.812;2023-09-30T02:01:02;101661.88;;;15.20;100.00
78198;BME280;67472;51.554;7.812;2023-09-30T02:03:49;101654.53;;;15.13;100.00
78198;BME280;67472;51.554;7.812;2023-09-30T02:06:35;101659.66;;;15.25;100.00
78198;BME280;67472;51.554;7.812;2023-09-30T02:09:21;101659.94;;;15.22;100.00
78198;BME280;67472;51.554;7.812;2023-09-30T02:12:09;101683.28;;;15.19;100.00
78198;BME280;67472;51.554;7.812;2023-09-30T02:14:55;101698.91;;;15.03;100.00
78198;BME280;67472;51.554;7.812;2023-09-30T02:17:41;101708.81;;;15.01;100.00
78198;BME280;67472;51.554;7.812;2023-09-30T02:20:30;101721.34;;;15.10;100.00
78198;BME280;67472;51.554;7.812;2023-09-30T02:23:17;101713.53;;;15.18;100.00
78198;BME280;67472;51.554;7.812;2023-09-30T02:26:04;101701.03;;;15.09;100.00
78198;BME280;67472;51.554;7.812;2023-09-30T02:28:52;101691.19;;;15.00;100.00
78198;BME280;67472;51.554;7.812;2023-09-30T02:31:38;101691.38;;;14.87;100.00
78198;BME280;67472;51.554;7.812;2023-09-30T02:34:26;101689.22;;;14.81;100.00
78198;BME280;67472;51.554;7.812;2023-09-30T02:37:12;101692.91;;;14.90;100.00
78198;BME280;67472;51.554;7.812;2023-09-30T02:39:58;101690.84;;;14.93;100.00
78198;BME280;67472;51.554;7.812;2023-09-30T02:42:44;101701.88;;;14.89;100.00
78198;BME280;67472;51.554;7.812;2023-09-30T02:45:32;101695.31;;;15.13;100.00
78198;BME280;67472;51.554;7.812;2023-09-30T02:48:19;101699.19;;;15.09;100.00
78198;BME280;67472;51.554;7.812;2023-09-30T02:51:09;101693.75;;;15.11;100.00
78198;BME280;67472;51.554;7.812;2023-09-30T02:53:56;101689.41;;;15.10;100.00
78198;BME280;67472;51.554;7.812;2023-09-30T02:56:41;101700.19;;;15.08;100.00
78198;BME280;67472;51.554;7.812;2023-09-30T02:59:29;101690.94;;;15.12;100.00
78198;BME280;67472;51.554;7.812;2023-09-30T03:02:17;101690.56;;;15.17;100.00
78198;BME280;67472;51.554;7.812;2023-09-30T03:05:04;101687.25;;;15.04;100.00
78198;BME280;67472;51.554;7.812;2023-09-30T03:07:50;101673.50;;;14.99;100.00
78198;BME280;67472;51.554;7.812;2023-09-30T03:10:37;101684.16;;;14.99;100.00
78198;BME280;67472;51.554;7.812;2023-09-30T03:13:25;101693.09;;;14.98;100.00
78198;BME280;67472;51.554;7.812;2023-09-30T03:16:11;101698.50;;;14.87;100.00
78198;BME280;67472;51.554;7.812;2023-09-30T03:18:59;101709.53;;;14.82;100.00
78198;BME280;67472;51.554;7.812;2023-09-30T03:21:45;101707.00;;;14.81;100.00
78198;BME280;67472;51.554;7.812;2023-09-30T03:24:32;101703.09;;;14.85;100.00
78198;BME280;67472;51.554;7.812;2023-09-30T03:27:19;101696.22;;;14.82;100.00
78198;BME280;67472;51.554;7.812;2023-09-30T03:30:07;101703.31;;;14.93;100.00
78198;BME280;67472;51.554;7.812;2023-09-30T03:32:53;101695.84;;;14.87;100.00
78198;BME280;67472;51.554;7.812;2023-09-30T03:35:41;101694.72;;;14.89;100.00
78198;BME280;67472;51.554;7.812;2023-09-30T03:38:27;101682.78;;;14.84;100.00
78198;BME280;67472;51.554;7.812;2023-09-30T03:41:14;101677.63;;;14.82;100.00
78198;BME280;67472;51.554;7.812;2023-09-30T03:44:00;101697.19;;;14.81;100.00
78198;BME280;67472;51.554;7.812;2023-09-30T03:46:47;101703.88;;;14.76;100.00
78198;BME280;67472;51.554;7.812;2023-09-30T03:49:34;101702.41;;;14.83;100.00
78198;BME280;67472;51.554;7.812;2023-09-30T03:52:24;101694.22;;;14.95;100.00
78198;BME280;67472;51.554;7.812;2023-09-30T03:55:13;101682.94;;;14.82;100.00
78198;BME280;67472;51.554;7.812;2023-09-30T03:58:00;101675.03;;;14.71;100.00
78198;BME280;67472;51.554;7.812;2023-09-30T04:00:47;101685.44;;;14.63;100.00
78198;BME280;67472;51.554;7.812;2023-09-30T04:03:34;101679.22;;;14.53;100.00
78198;BME280;67472;51.554;7.812;2023-09-30T04:06:22;101684.34;;;14.45;100.00
78198;BME280;67472;51.554;7.812;2023-09-30T04:09:09;101687.28;;;14.51;100.00
78198;BME280;67472;51.554;7.812;2023-09-30T04:11:55;101687.00;;;14.45;100.00
78198;BME280;67472;51.554;7.812;2023-09-30T04:14:41;101688.78;;;14.44;100.00
78198;BME280;67472;51.554;7.812;2023-09-30T04:17:27;101694.72;;;14.37;100.00
78198;BME280;67472;51.554;7.812;2023-09-30T04:20:13;101690.84;;;14.41;100.00
78198;BME280;67472;51.554;7.812;2023-09-30T04:23:07;101694.22;;;14.43;100.00
78198;BME280;67472;51.554;7.812;2023-09-30T04:25:56;101695.66;;;14.47;100.00
78198;BME280;67472;51.554;7.812;2023-09-30T04:28:42;101704.84;;;14.54;100.00
78198;BME280;67472;51.554;7.812;2023-09-30T04:31:29;101703.84;;;14.55;100.00
78198;BME280;67472;51.554;7.812;2023-09-30T04:34:15;101686.44;;;14.62;100.00
78198;BME280;67472;51.554;7.812;2023-09-30T04:37:01;101685.38;;;14.53;100.00
78198;BME280;67472;51.554;7.812;2023-09-30T04:39:48;101684.53;;;14.53;100.00
78198;BME280;67472;51.554;7.812;2023-09-30T04:42:35;101694.19;;;14.54;100.00
78198;BME280;67472;51.554;7.812;2023-09-30T04:45:21;101703.69;;;14.36;100.00
78198;BME280;67472;51.554;7.812;2023-09-30T04:48:09;101703.09;;;14.32;100.00
78198;BME280;67472;51.554;7.812;2023-09-30T04:50:55;101713.22;;;14.38;100.00
78198;BME280;67472;51.554;7.812;2023-09-30T04:53:41;101709.50;;;14.19;100.00
78198;BME280;67472;51.554;7.812;2023-09-30T04:56:27;101713.72;;;14.21;100.00
78198;BME280;67472;51.554;7.812;2023-09-30T04:59:15;101716.63;;;14.18;100.00
78198;BME280;67472;51.554;7.812;2023-09-30T05:02:01;101725.69;;;14.15;100.00
78198;BME280;67472;51.554;7.812;2023-09-30T05:04:48;101726.31;;;13.97;100.00
78198;BME280;67472;51.554;7.812;2023-09-30T05:07:35;101721.16;;;13.95;100.00
78198;BME280;67472;51.554;7.812;2023-09-30T05:10:21;101733.44;;;13.96;100.00
78198;BME280;67472;51.554;7.812;2023-09-30T05:13:09;101739.25;;;14.01;100.00
78198;BME280;67472;51.554;7.812;2023-09-30T05:15:56;101740.09;;;13.91;100.00
78198;BME280;67472;51.554;7.812;2023-09-30T05:18:43;101745.31;;;13.81;100.00
78198;BME280;67472;51.554;7.812;2023-09-30T05:21:29;101749.16;;;13.66;100.00
78198;BME280;67472;51.554;7.812;2023-09-30T05:24:16;101753.50;;;13.89;100.00
78198;BME280;67472;51.554;7.812;2023-09-30T05:27:03;101744.22;;;13.84;100.00
78198;BME280;67472;51.554;7.812;2023-09-30T05:29:49;101743.97;;;13.76;100.00
78198;BME280;67472;51.554;7.812;2023-09-30T05:32:37;101753.63;;;13.88;100.00
78198;BME280;67472;51.554;7.812;2023-09-30T05:35:23;101759.91;;;13.87;100.00
78198;BME280;67472;51.554;7.812;2023-09-30T05:38:09;101760.63;;;14.00;100.00
78198;BME280;67472;51.554;7.812;2023-09-30T05:40:57;101760.38;;;14.03;100.00
78198;BME280;67472;51.554;7.812;2023-09-30T05:43:43;101759.41;;;14.04;100.00
78198;BME280;67472;51.554;7.812;2023-09-30T05:46:30;101759.50;;;14.13;100.00
78198;BME280;67472;51.554;7.812;2023-09-30T05:49:18;101765.44;;;14.17;100.00
78198;BME280;67472;51.554;7.812;2023-09-30T05:52:04;101759.06;;;13.97;100.00
78198;BME280;67472;51.554;7.812;2023-09-30T05:54:51;101758.22;;;13.86;100.00
78198;BME280;67472;51.554;7.812;2023-09-30T05:57:37;101778.28;;;13.90;100.00
78198;BME280;67472;51.554;7.812;2023-09-30T06:00:24;101773.06;;;13.88;100.00
78198;BME280;67472;51.554;7.812;2023-09-30T06:03:13;101766.78;;;13.89;100.00
78198;BME280;67472;51.554;7.812;2023-09-30T06:06:01;101773.03;;;13.99;100.00
78198;BME280;67472;51.554;7.812;2023-09-30T06:08:47;101780.28;;;14.08;100.00
78198;BME280;67472;51.554;7.812;2023-09-30T06:11:33;101768.72;;;14.09;100.00
78198;BME280;67472;51.554;7.812;2023-09-30T06:14:20;101755.66;;;14.06;100.00
78198;BME280;67472;51.554;7.812;2023-09-30T06:17:07;101761.09;;;14.16;100.00
78198;BME280;67472;51.554;7.812;2023-09-30T06:19:53;101757.41;;;14.28;100.00
78198;BME280;67472;51.554;7.812;2023-09-30T06:22:41;101753.44;;;14.34;100.00
78198;BME280;67472;51.554;7.812;2023-09-30T06:25:27;101756.72;;;14.26;100.00
78198;BME280;67472;51.554;7.812;2023-09-30T06:28:15;101763.22;;;14.44;100.00
78198;BME280;67472;51.554;7.812;2023-09-30T06:31:02;101765.69;;;14.36;100.00
78198;BME280;67472;51.554;7.812;2023-09-30T06:33:48;101764.53;;;14.50;100.00
78198;BME280;67472;51.554;7.812;2023-09-30T06:36:34;101762.19;;;14.67;100.00
78198;BME280;67472;51.554;7.812;2023-09-30T06:39:23;101765.66;;;14.79;100.00
78198;BME280;67472;51.554;7.812;2023-09-30T06:42:09;101761.50;;;15.07;100.00
78198;BME280;67472;51.554;7.812;2023-09-30T06:44:55;101757.56;;;15.22;100.00
78198;BME280;67472;51.554;7.812;2023-09-30T06:47:42;101740.72;;;15.42;100.00
78198;BME280;67472;51.554;7.812;2023-09-30T06:50:30;101737.88;;;15.55;100.00
78198;BME280;67472;51.554;7.812;2023-09-30T06:53:17;101738.75;;;15.65;100.00
78198;BME280;67472;51.554;7.812;2023-09-30T06:56:06;101741.03;;;15.69;100.00
78198;BME280;67472;51.554;7.812;2023-09-30T06:58:52;101735.88;;;15.77;100.00
78198;BME280;67472;51.554;7.812;2023-09-30T07:01:38;101740.97;;;15.90;100.00
78198;BME280;67472;51.554;7.812;2023-09-30T07:04:25;101747.31;;;16.08;100.00
78198;BME280;67472;51.554;7.812;2023-09-30T07:07:11;101744.72;;;16.27;100.00
78198;BME280;67472;51.554;7.812;2023-09-30T07:09:57;101745.84;;;16.34;100.00
78198;BME280;67472;51.554;7.812;2023-09-30T07:12:45;101750.06;;;16.47;100.00
78198;BME280;67472;51.554;7.812;2023-09-30T07:15:31;101744.59;;;16.38;100.00
78198;BME280;67472;51.554;7.812;2023-09-30T07:18:17;101759.34;;;16.52;100.00
78198;BME280;67472;51.554;7.812;2023-09-30T07:21:03;101756.59;;;16.54;100.00
78198;BME280;67472;51.554;7.812;2023-09-30T07:23:49;101772.16;;;16.58;100.00
78198;BME280;67472;51.554;7.812;2023-09-30T07:26:36;101773.28;;;16.56;100.00
78198;BME280;67472;51.554;7.812;2023-09-30T07:29:23;101766.28;;;16.74;100.00
78198;BME280;67472;51.554;7.812;2023-09-30T07:32:09;101756.31;;;16.76;100.00
78198;BME280;67472;51.554;7.812;2023-09-30T07:34:55;101758.25;;;16.83;100.00
78198;BME280;67472;51.554;7.812;2023-09-30T07:37:41;101761.91;;;16.92;100.00
78198;BME280;67472;51.554;7.812;2023-09-30T07:40:27;101760.25;;;17.01;100.00
78198;BME280;67472;51.554;7.812;2023-09-30T07:43:13;101760.50;;;17.07;100.00
78198;BME280;67472;51.554;7.812;2023-09-30T07:46:06;101767.94;;;17.04;100.00
78198;BME280;67472;51.554;7.812;2023-09-30T07:48:52;101761.47;;;17.25;100.00
78198;BME280;67472;51.554;7.812;2023-09-30T07:51:39;101777.16;;;17.47;100.00
78198;BME280;67472;51.554;7.812;2023-09-30T07:54:25;101776.34;;;17.37;100.00
78198;BME280;67472;51.554;7.812;2023-09-30T07:57:12;101780.69;;;17.58;100.00
78198;BME280;67472;51.554;7.812;2023-09-30T07:59:58;101770.97;;;17.57;100.00
78198;BME280;67472;51.554;7.812;2023-09-30T08:02:45;101763.69;;;17.86;100.00
78198;BME280;67472;51.554;7.812;2023-09-30T08:05:31;101766.47;;;17.57;100.00
78198;BME280;67472;51.554;7.812;2023-09-30T08:08:17;101773.16;;;17.71;100.00
78198;BME280;67472;51.554;7.812;2023-09-30T08:11:03;101764.94;;;17.55;100.00
78198;BME280;67472;51.554;7.812;2023-09-30T08:13:50;101763.91;;;17.65;100.00
78198;BME280;67472;51.554;7.812;2023-09-30T08:16:36;101768.28;;;17.66;100.00
78198;BME280;67472;51.554;7.812;2023-09-30T08:19:24;101774.13;;;17.79;100.00
78198;BME280;67472;51.554;7.812;2023-09-30T08:22:10;101771.59;;;17.87;100.00
78198;BME280;67472;51.554;7.812;2023-09-30T08:24:56;101779.53;;;17.97;100.00
78198;BME280;67472;51.554;7.812;2023-09-30T08:27:42;101777.25;;;18.29;100.00
78198;BME280;67472;51.554;7.812;2023-09-30T08:30:30;101778.41;;;17.99;100.00
78198;BME280;67472;51.554;7.812;2023-09-30T08:33:16;101777.88;;;17.96;100.00
78198;BME280;67472;51.554;7.812;2023-09-30T08:36:04;101788.28;;;17.99;100.00
78198;BME280;67472;51.554;7.812;2023-09-30T08:38:52;101781.97;;;17.90;100.00
78198;BME280;67472;51.554;7.812;2023-09-30T08:41:38;101790.78;;;18.00;100.00
78198;BME280;67472;51.554;7.812;2023-09-30T08:44:24;101788.16;;;18.18;100.00
78198;BME280;67472;51.554;7.812;2023-09-30T08:47:10;101792.03;;;18.33;100.00
78198;BME280;67472;51.554;7.812;2023-09-30T08:49:59;101788.91;;;18.38;100.00
78198;BME280;67472;51.554;7.812;2023-09-30T08:52:52;101796.88;;;18.47;100.00
78198;BME280;67472;51.554;7.812;2023-09-30T08:55:40;101783.50;;;18.47;100.00
78198;BME280;67472;51.554;7.812;2023-09-30T08:58:28;101790.03;;;18.63;100.00
78198;BME280;67472;51.554;7.812;2023-09-30T09:01:15;101791.09;;;18.70;100.00
78198;BME280;67472;51.554;7.812;2023-09-30T09:04:03;101785.63;;;18.71;100.00
78198;BME280;67472;51.554;7.812;2023-09-30T09:06:49;101785.53;;;18.81;100.00
78198;BME280;67472;51.554;7.812;2023-09-30T09:09:37;101790.13;;;19.06;100.00
78198;BME280;67472;51.554;7.812;2023-09-30T09:12:23;101790.84;;;19.16;100.00
78198;BME280;67472;51.554;7.812;2023-09-30T09:15:24;101783.06;;;19.05;100.00
78198;BME280;67472;51.554;7.812;2023-09-30T09:18:10;101784.78;;;18.88;100.00
78198;BME280;67472;51.554;7.812;2023-09-30T09:21:09;101781.94;;;19.33;100.00
78198;BME280;67472;51.554;7.812;2023-09-30T09:23:55;101776.44;;;19.35;100.00
78198;BME280;67472;51.554;7.812;2023-09-30T09:26:43;101763.75;;;19.62;100.00
78198;BME280;67472;51.554;7.812;2023-09-30T09:29:29;101746.75;;;19.80;100.00
78198;BME280;67472;51.554;7.812;2023-09-30T09:32:16;101732.31;;;19.72;100.00
78198;BME280;67472;51.554;7.812;2023-09-30T09:35:03;101741.00;;;19.66;100.00
78198;BME280;67472;51.554;7.812;2023-09-30T09:37:57;101744.75;;;19.82;100.00
78198;BME280;67472;51.554;7.812;2023-09-30T09:40:43;101751.53;;;20.02;100.00
78198;BME280;67472;51.554;7.812;2023-09-30T09:43:32;101745.84;;;20.05;100.00
78198;BME280;67472;51.554;7.812;2023-09-30T09:46:20;101746.72;;;20.05;100.00
78198;BME280;67472;51.554;7.812;2023-09-30T09:49:07;101741.22;;;19.81;100.00
78198;BME280;67472;51.554;7.812;2023-09-30T09:51:56;101745.47;;;19.92;100.00
78198;BME280;67472;51.554;7.812;2023-09-30T09:54:43;101749.97;;;20.25;100.00
78198;BME280;67472;51.554;7.812;2023-09-30T09:57:30;101738.16;;;20.10;100.00
78198;BME280;67472;51.554;7.812;2023-09-30T10:00:20;101727.22;;;20.37;100.00
78198;BME280;67472;51.554;7.812;2023-09-30T10:03:07;101731.06;;;20.43;100.00
78198;BME280;67472;51.554;7.812;2023-09-30T10:05:53;101719.81;;;20.55;100.00
78198;BME280;67472;51.554;7.812;2023-09-30T10:08:42;101723.72;;;20.69;100.00
78198;BME280;67472;51.554;7.812;2023-09-30T10:11:30;101716.31;;;21.03;100.00
78198;BME280;67472;51.554;7.812;2023-09-30T10:14:29;101722.34;;;20.49;100.00
78198;BME280;67472;51.554;7.812;2023-09-30T10:17:18;101733.63;;;20.68;100.00
78198;BME280;67472;51.554;7.812;2023-09-30T10:20:06;101726.38;;;20.53;97.18
78198;BME280;67472;51.554;7.812;2023-09-30T10:23:20;101733.63;;;20.76;94.05
78198;BME280;67472;51.554;7.812;2023-09-30T10:26:15;101746.38;;;20.99;94.19
78198;BME280;67472;51.554;7.812;2023-09-30T10:29:09;101731.28;;;21.30;90.38
78198;BME280;67472;51.554;7.812;2023-09-30T10:31:55;101728.00;;;21.51;91.21
78198;BME280;67472;51.554;7.812;2023-09-30T10:34:48;101722.31;;;21.46;88.14
78198;BME280;67472;51.554;7.812;2023-09-30T10:37:36;101722.84;;;21.41;87.60
78198;BME280;67472;51.554;7.812;2023-09-30T10:40:27;101715.03;;;21.70;83.35
78198;BME280;67472;51.554;7.812;2023-09-30T10:43:30;101708.25;;;21.74;81.38
78198;BME280;67472;51.554;7.812;2023-09-30T10:46:41;101706.31;;;22.07;80.37
78198;BME280;67472;51.554;7.812;2023-09-30T10:49:30;101728.16;;;22.35;81.60
78198;BME280;67472;51.554;7.812;2023-09-30T10:52:22;101705.31;;;22.00;77.58
78198;BME280;67472;51.554;7.812;2023-09-30T10:55:09;101706.88;;;21.94;76.83
78198;BME280;67472;51.554;7.812;2023-09-30T10:57:55;101722.44;;;22.69;78.82
78198;BME280;67472;51.554;7.812;2023-09-30T11:00:52;101719.72;;;22.38;77.51
78198;BME280;67472;51.554;7.812;2023-09-30T11:03:39;101717.72;;;22.40;74.88
78198;BME280;67472;51.554;7.812;2023-09-30T11:06:25;101707.66;;;22.34;73.40
78198;BME280;67472;51.554;7.812;2023-09-30T11:09:16;101710.78;;;22.15;72.88
78198;BME280;67472;51.554;7.812;2023-09-30T11:12:13;101707.13;;;22.38;72.35
78198;BME280;67472;51.554;7.812;2023-09-30T11:15:01;101709.09;;;22.22;72.10
78198;BME280;67472;51.554;7.812;2023-09-30T11:17:47;101722.84;;;22.27;74.88
78198;BME280;67472;51.554;7.812;2023-09-30T11:20:33;101715.81;;;22.48;75.25
78198;BME280;67472;51.554;7.812;2023-09-30T11:23:19;101713.50;;;22.68;75.13
78198;BME280;67472;51.554;7.812;2023-09-30T11:26:07;101685.84;;;22.51;71.97
78198;BME280;67472;51.554;7.812;2023-09-30T11:28:55;101712.13;;;22.72;77.21
78198;BME280;67472;51.554;7.812;2023-09-30T11:31:41;101697.50;;;22.89;75.56
78198;BME280;67472;51.554;7.812;2023-09-30T11:34:31;101689.75;;;23.24;74.10
78198;BME280;67472;51.554;7.812;2023-09-30T11:37:18;101674.63;;;22.85;71.97
78198;BME280;67472;51.554;7.812;2023-09-30T11:40:11;101678.63;;;23.41;72.08
78198;BME280;67472;51.554;7.812;2023-09-30T11:43:09;101670.84;;;23.09;70.18
78198;BME280;67472;51.554;7.812;2023-09-30T11:46:07;101677.78;;;22.43;72.10
78198;BME280;67472;51.554;7.812;2023-09-30T11:48:57;101668.75;;;22.82;71.25
78198;BME280;67472;51.554;7.812;2023-09-30T11:51:44;101665.16;;;22.44;71.02
78198;BME280;67472;51.554;7.812;2023-09-30T11:54:32;101669.81;;;22.95;71.60
78198;BME280;67472;51.554;7.812;2023-09-30T11:57:18;101655.91;;;23.06;71.89
78198;BME280;67472;51.554;7.812;2023-09-30T12:00:07;101670.25;;;23.36;71.69
78198;BME280;67472;51.554;7.812;2023-09-30T12:02:58;101655.56;;;23.39;69.33
78198;BME280;67472;51.554;7.812;2023-09-30T12:05:45;101662.34;;;23.64;69.04
78198;BME280;67472;51.554;7.812;2023-09-30T12:08:31;101659.69;;;23.85;68.61
78198;BME280;67472;51.554;7.812;2023-09-30T12:11:18;101652.47;;;23.13;66.77
78198;BME280;67472;51.554;7.812;2023-09-30T12:14:04;101653.84;;;23.08;66.91
78198;BME280;67472;51.554;7.812;2023-09-30T12:16:52;101656.56;;;23.23;66.64
78198;BME280;67472;51.554;7.812;2023-09-30T12:19:39;101649.31;;;23.68;66.11
78198;BME280;67472;51.554;7.812;2023-09-30T12:22:25;101647.44;;;23.83;65.14
78198;BME280;67472;51.554;7.812;2023-09-30T12:25:11;101661.13;;;23.52;65.93
78198;BME280;67472;51.554;7.812;2023-09-30T12:27:57;101659.91;;;22.73;67.12
78198;BME280;67472;51.554;7.812;2023-09-30T12:30:43;101673.38;;;22.28;68.37
78198;BME280;67472;51.554;7.812;2023-09-30T12:33:31;101684.22;;;22.42;69.87
78198;BME280;67472;51.554;7.812;2023-09-30T12:36:18;101685.25;;;22.11;71.22
78198;BME280;67472;51.554;7.812;2023-09-30T12:39:04;101678.75;;;22.05;71.83
78198;BME280;67472;51.554;7.812;2023-09-30T12:41:55;101686.06;;;22.19;72.21
78198;BME280;67472;51.554;7.812;2023-09-30T12:44:41;101679.03;;;22.56;72.08
78198;BME280;67472;51.554;7.812;2023-09-30T12:47:27;101655.66;;;22.79;70.15
78198;BME280;67472;51.554;7.812;2023-09-30T12:50:14;101639.44;;;22.87;68.93
78198;BME280;67472;51.554;7.812;2023-09-30T12:53:01;101635.97;;;23.07;68.45
78198;BME280;67472;51.554;7.812;2023-09-30T12:55:47;101628.66;;;22.87;67.41
78198;BME280;67472;51.554;7.812;2023-09-30T12:58:33;101637.34;;;22.51;67.60
78198;BME280;67472;51.554;7.812;2023-09-30T13:01:20;101649.03;;;22.21;69.80
78198;BME280;67472;51.554;7.812;2023-09-30T13:04:07;101639.78;;;21.93;68.62
78198;BME280;67472;51.554;7.812;2023-09-30T13:06:55;101649.59;;;21.78;69.72
78198;BME280;67472;51.554;7.812;2023-09-30T13:09:42;101639.38;;;21.65;69.05
78198;BME280;67472;51.554;7.812;2023-09-30T13:12:28;101614.66;;;21.31;67.31
78198;BME280;67472;51.554;7.812;2023-09-30T13:15:14;101612.03;;;21.62;65.97
78198;BME280;67472;51.554;7.812;2023-09-30T13:18:01;101627.81;;;22.41;67.34
78198;BME280;67472;51.554;7.812;2023-09-30T13:20:48;101628.84;;;22.63;67.37
78198;BME280;67472;51.554;7.812;2023-09-30T13:23:35;101623.22;;;22.72;66.41
78198;BME280;67472;51.554;7.812;2023-09-30T13:26:21;101612.91;;;22.76;65.34
78198;BME280;67472;51.554;7.812;2023-09-30T13:29:08;101605.69;;;23.05;64.22
78198;BME280;67472;51.554;7.812;2023-09-30T13:31:55;101605.25;;;23.46;63.96
78198;BME280;67472;51.554;7.812;2023-09-30T13:34:42;101578.84;;;23.41;60.85
78198;BME280;67472;51.554;7.812;2023-09-30T13:37:28;101584.22;;;23.27;61.88
78198;BME280;67472;51.554;7.812;2023-09-30T13:40:19;101579.22;;;23.09;61.08
78198;BME280;67472;51.554;7.812;2023-09-30T13:43:05;101577.88;;;22.76;61.76
78198;BME280;67472;51.554;7.812;2023-09-30T13:45:51;101558.22;;;22.75;60.35
78198;BME280;67472;51.554;7.812;2023-09-30T13:48:36;101571.03;;;22.88;61.07
78198;BME280;67472;51.554;7.812;2023-09-30T13:51:22;101574.56;;;22.88;62.15
78198;BME280;67472;51.554;7.812;2023-09-30T13:54:08;101551.50;;;22.86;60.47
78198;BME280;67472;51.554;7.812;2023-09-30T13:56:56;101559.22;;;22.89;61.44
78198;BME280;67472;51.554;7.812;2023-09-30T13:59:43;101555.47;;;22.61;61.42
78198;BME280;67472;51.554;7.812;2023-09-30T14:02:29;101549.13;;;22.53;60.40
78198;BME280;67472;51.554;7.812;2023-09-30T14:05:15;101547.75;;;22.58;59.97
78198;BME280;67472;51.554;7.812;2023-09-30T14:08:02;101549.03;;;22.62;60.45
78198;BME280;67472;51.554;7.812;2023-09-30T14:10:48;101541.84;;;22.77;60.26
78198;BME280;67472;51.554;7.812;2023-09-30T14:13:37;101541.63;;;22.64;59.55
78198;BME280;67472;51.554;7.812;2023-09-30T14:16:24;101527.09;;;22.50;58.73
78198;BME280;67472;51.554;7.812;2023-09-30T14:19:10;101514.88;;;22.62;58.20
78198;BME280;67472;51.554;7.812;2023-09-30T14:21:58;101522.03;;;22.70;58.48
78198;BME280;67472;51.554;7.812;2023-09-30T14:24:45;101516.00;;;22.97;57.50
78198;BME280;67472;51.554;7.812;2023-09-30T14:27:31;101522.69;;;23.30;58.54